Rock Springs, Wyoming
Current Conditions -  °F | °C
As of 1:54 PM on Thursday 20 Nov 2014 (Local Time) from KRKS Reporting Station
Broken Clouds Broken Clouds  
Wind Chill: 33°   Ceiling: 10000
Heat Index: 39°   Visibility: 10mi
Dew Point: 15°   Wind: 9mph
Humidity: 38%   Direction: 270°W
Pressure: 30.03"   Gusts: NA
Location:  41.59°N, 109.22°W
Report Text: KRKS 202054Z AUTO 27008KT 10SM FEW060 SCT075 BKN100 04/M09 A3003 RMK AO2 SLP173 T00391094 56009
Loading
Personal Weather Stations






























Interactive Weather Map New forecast layout! Learn more

10-Day Weather Forecast

Advertisements
Track Severe Weather on mobile